sensor_id;sensor_type;location;lat;lon;timestamp;P1;durP1;ratioP1;P2;durP2;ratioP2
7205;SDS011;3644;53.480;10.004;2023-02-01T00:01:47;40.07;;;5.07;;
7205;SDS011;3644;53.480;10.004;2023-02-01T00:04:12;17.13;;;4.63;;
7205;SDS011;3644;53.480;10.004;2023-02-01T00:06:38;9.93;;;3.60;;
7205;SDS011;3644;53.480;10.004;2023-02-01T00:09:04;22.60;;;3.87;;
7205;SDS011;3644;53.480;10.004;2023-02-01T00:11:29;25.53;;;5.40;;
7205;SDS011;3644;53.480;10.004;2023-02-01T00:13:56;38.70;;;5.87;;
7205;SDS011;3644;53.480;10.004;2023-02-01T00:16:23;23.13;;;4.37;;
7205;SDS011;3644;53.480;10.004;2023-02-01T00:18:51;25.80;;;5.80;;
7205;SDS011;3644;53.480;10.004;2023-02-01T00:21:20;15.60;;;6.43;;
7205;SDS011;3644;53.480;10.004;2023-02-01T00:23:46;25.93;;;5.13;;
7205;SDS011;3644;53.480;10.004;2023-02-01T00:26:34;28.77;;;4.83;;
7205;SDS011;3644;53.480;10.004;2023-02-01T00:28:59;24.50;;;4.30;;
7205;SDS011;3644;53.480;10.004;2023-02-01T00:31:26;13.20;;;3.90;;
7205;SDS011;3644;53.480;10.004;2023-02-01T00:33:51;21.40;;;4.90;;
7205;SDS011;3644;53.480;10.004;2023-02-01T00:36:17;19.60;;;4.20;;
7205;SDS011;3644;53.480;10.004;2023-02-01T00:38:43;22.93;;;4.57;;
7205;SDS011;3644;53.480;10.004;2023-02-01T00:41:10;17.70;;;4.23;;
7205;SDS011;3644;53.480;10.004;2023-02-01T00:43:41;26.57;;;4.37;;
7205;SDS011;3644;53.480;10.004;2023-02-01T00:46:07;30.17;;;7.00;;
7205;SDS011;3644;53.480;10.004;2023-02-01T00:48:33;37.47;;;5.40;;
7205;SDS011;3644;53.480;10.004;2023-02-01T00:50:59;25.83;;;4.30;;
7205;SDS011;3644;53.480;10.004;2023-02-01T00:53:29;26.53;;;5.70;;
7205;SDS011;3644;53.480;10.004;2023-02-01T00:55:55;32.43;;;5.67;;
7205;SDS011;3644;53.480;10.004;2023-02-01T00:58:21;24.97;;;5.10;;
7205;SDS011;3644;53.480;10.004;2023-02-01T01:00:49;20.20;;;4.43;;
7205;SDS011;3644;53.480;10.004;2023-02-01T01:03:14;68.27;;;7.20;;
7205;SDS011;3644;53.480;10.004;2023-02-01T01:05:46;34.13;;;5.10;;
7205;SDS011;3644;53.480;10.004;2023-02-01T01:08:14;27.77;;;5.10;;
7205;SDS011;3644;53.480;10.004;2023-02-01T01:10:40;28.07;;;5.10;;
7205;SDS011;3644;53.480;10.004;2023-02-01T01:13:07;29.57;;;5.70;;
7205;SDS011;3644;53.480;10.004;2023-02-01T01:15:37;26.13;;;4.77;;
7205;SDS011;3644;53.480;10.004;2023-02-01T01:18:03;17.07;;;5.07;;
7205;SDS011;3644;53.480;10.004;2023-02-01T01:20:29;48.57;;;5.90;;
7205;SDS011;3644;53.480;10.004;2023-02-01T01:22:54;26.73;;;5.90;;
7205;SDS011;3644;53.480;10.004;2023-02-01T01:25:20;33.10;;;5.80;;
7205;SDS011;3644;53.480;10.004;2023-02-01T01:27:46;36.70;;;5.97;;
7205;SDS011;3644;53.480;10.004;2023-02-01T01:30:11;23.83;;;5.60;;
7205;SDS011;3644;53.480;10.004;2023-02-01T01:32:37;28.83;;;4.83;;
7205;SDS011;3644;53.480;10.004;2023-02-01T01:35:03;33.87;;;6.53;;
7205;SDS011;3644;53.480;10.004;2023-02-01T01:37:28;35.63;;;5.70;;
7205;SDS011;3644;53.480;10.004;2023-02-01T01:39:54;25.10;;;5.53;;
7205;SDS011;3644;53.480;10.004;2023-02-01T01:42:20;26.73;;;5.63;;
7205;SDS011;3644;53.480;10.004;2023-02-01T01:44:59;35.40;;;5.20;;
7205;SDS011;3644;53.480;10.004;2023-02-01T01:47:26;28.87;;;4.90;;
7205;SDS011;3644;53.480;10.004;2023-02-01T01:49:54;32.43;;;6.30;;
7205;SDS011;3644;53.480;10.004;2023-02-01T01:52:20;20.80;;;5.30;;
7205;SDS011;3644;53.480;10.004;2023-02-01T01:54:47;30.13;;;4.70;;
7205;SDS011;3644;53.480;10.004;2023-02-01T01:57:16;33.63;;;6.23;;
7205;SDS011;3644;53.480;10.004;2023-02-01T01:59:50;23.63;;;5.90;;
7205;SDS011;3644;53.480;10.004;2023-02-01T02:02:22;27.53;;;5.23;;
7205;SDS011;3644;53.480;10.004;2023-02-01T02:04:49;34.97;;;5.67;;
7205;SDS011;3644;53.480;10.004;2023-02-01T02:07:16;16.63;;;5.53;;
7205;SDS011;3644;53.480;10.004;2023-02-01T02:09:46;29.97;;;4.80;;
7205;SDS011;3644;53.480;10.004;2023-02-01T02:12:11;32.77;;;5.10;;
7205;SDS011;3644;53.480;10.004;2023-02-01T02:14:37;42.67;;;8.77;;
7205;SDS011;3644;53.480;10.004;2023-02-01T02:17:07;34.60;;;6.57;;
7205;SDS011;3644;53.480;10.004;2023-02-01T02:20:15;23.73;;;4.50;;
7205;SDS011;3644;53.480;10.004;2023-02-01T02:26:21;30.37;;;5.97;;
7205;SDS011;3644;53.480;10.004;2023-02-01T02:31:54;50.30;;;6.10;;
7205;SDS011;3644;53.480;10.004;2023-02-01T02:34:36;15.90;;;4.73;;
7205;SDS011;3644;53.480;10.004;2023-02-01T02:40:21;31.63;;;5.50;;
7205;SDS011;3644;53.480;10.004;2023-02-01T02:43:03;31.03;;;6.03;;
7205;SDS011;3644;53.480;10.004;2023-02-01T02:46:01;24.70;;;5.50;;
7205;SDS011;3644;53.480;10.004;2023-02-01T02:48:53;30.73;;;5.10;;
7205;SDS011;3644;53.480;10.004;2023-02-01T02:51:29;25.27;;;5.73;;
7205;SDS011;3644;53.480;10.004;2023-02-01T02:54:31;21.20;;;5.00;;
7205;SDS011;3644;53.480;10.004;2023-02-01T02:57:27;38.60;;;5.80;;
7205;SDS011;3644;53.480;10.004;2023-02-01T03:00:19;29.60;;;6.57;;
7205;SDS011;3644;53.480;10.004;2023-02-01T03:03:05;27.07;;;5.53;;
7205;SDS011;3644;53.480;10.004;2023-02-01T03:05:50;22.13;;;5.23;;
7205;SDS011;3644;53.480;10.004;2023-02-01T03:08:17;25.10;;;5.10;;
7205;SDS011;3644;53.480;10.004;2023-02-01T03:10:47;32.60;;;4.90;;
7205;SDS011;3644;53.480;10.004;2023-02-01T03:16:00;28.37;;;5.20;;
7205;SDS011;3644;53.480;10.004;2023-02-01T03:21:39;27.07;;;5.23;;
7205;SDS011;3644;53.480;10.004;2023-02-01T03:24:21;24.73;;;4.60;;
7205;SDS011;3644;53.480;10.004;2023-02-01T03:29:40;20.77;;;3.60;;
7205;SDS011;3644;53.480;10.004;2023-02-01T03:32:21;18.00;;;3.20;;
7205;SDS011;3644;53.480;10.004;2023-02-01T03:34:47;10.30;;;3.00;;
7205;SDS011;3644;53.480;10.004;2023-02-01T03:37:16;11.73;;;3.83;;
7205;SDS011;3644;53.480;10.004;2023-02-01T03:40:10;8.10;;;1.90;;
7205;SDS011;3644;53.480;10.004;2023-02-01T03:42:38;5.97;;;2.60;;
7205;SDS011;3644;53.480;10.004;2023-02-01T03:45:10;7.83;;;1.87;;
7205;SDS011;3644;53.480;10.004;2023-02-01T03:47:43;8.23;;;2.63;;
7205;SDS011;3644;53.480;10.004;2023-02-01T03:50:14;17.67;;;3.40;;
7205;SDS011;3644;53.480;10.004;2023-02-01T03:52:53;13.33;;;2.97;;
7205;SDS011;3644;53.480;10.004;2023-02-01T03:55:28;11.60;;;3.60;;
7205;SDS011;3644;53.480;10.004;2023-02-01T03:58:09;15.90;;;4.77;;
7205;SDS011;3644;53.480;10.004;2023-02-01T04:00:55;18.83;;;3.70;;
7205;SDS011;3644;53.480;10.004;2023-02-01T04:03:22;15.40;;;3.03;;
7205;SDS011;3644;53.480;10.004;2023-02-01T04:05:48;13.50;;;3.80;;
7205;SDS011;3644;53.480;10.004;2023-02-01T04:08:14;18.57;;;2.67;;
7205;SDS011;3644;53.480;10.004;2023-02-01T04:10:40;9.80;;;4.17;;
7205;SDS011;3644;53.480;10.004;2023-02-01T04:13:05;11.60;;;3.17;;
7205;SDS011;3644;53.480;10.004;2023-02-01T04:15:31;8.53;;;2.73;;
7205;SDS011;3644;53.480;10.004;2023-02-01T04:17:58;17.40;;;4.00;;
7205;SDS011;3644;53.480;10.004;2023-02-01T04:20:24;14.43;;;3.30;;
7205;SDS011;3644;53.480;10.004;2023-02-01T04:22:49;13.83;;;3.00;;
7205;SDS011;3644;53.480;10.004;2023-02-01T04:25:15;21.77;;;4.67;;
7205;SDS011;3644;53.480;10.004;2023-02-01T04:27:42;8.27;;;2.57;;
7205;SDS011;3644;53.480;10.004;2023-02-01T04:30:08;15.60;;;3.10;;
7205;SDS011;3644;53.480;10.004;2023-02-01T04:32:34;12.27;;;3.57;;
7205;SDS011;3644;53.480;10.004;2023-02-01T04:35:01;8.73;;;2.67;;
7205;SDS011;3644;53.480;10.004;2023-02-01T04:37:26;12.40;;;2.50;;
7205;SDS011;3644;53.480;10.004;2023-02-01T04:39:52;9.53;;;2.33;;
7205;SDS011;3644;53.480;10.004;2023-02-01T04:42:17;11.50;;;2.50;;
7205;SDS011;3644;53.480;10.004;2023-02-01T04:44:43;10.00;;;3.00;;
7205;SDS011;3644;53.480;10.004;2023-02-01T04:47:08;9.03;;;2.70;;
7205;SDS011;3644;53.480;10.004;2023-02-01T04:49:34;9.23;;;2.43;;
7205;SDS011;3644;53.480;10.004;2023-02-01T04:52:00;22.63;;;2.97;;
7205;SDS011;3644;53.480;10.004;2023-02-01T04:54:25;14.10;;;3.17;;
7205;SDS011;3644;53.480;10.004;2023-02-01T04:56:51;8.10;;;2.23;;
7205;SDS011;3644;53.480;10.004;2023-02-01T04:59:16;12.00;;;2.57;;
7205;SDS011;3644;53.480;10.004;2023-02-01T05:01:42;17.33;;;2.50;;
7205;SDS011;3644;53.480;10.004;2023-02-01T05:04:07;13.27;;;2.73;;
7205;SDS011;3644;53.480;10.004;2023-02-01T05:06:33;8.50;;;1.83;;
7205;SDS011;3644;53.480;10.004;2023-02-01T05:08:58;10.20;;;2.33;;
7205;SDS011;3644;53.480;10.004;2023-02-01T05:11:24;6.13;;;2.70;;
7205;SDS011;3644;53.480;10.004;2023-02-01T05:14:08;6.43;;;2.27;;
7205;SDS011;3644;53.480;10.004;2023-02-01T05:16:34;5.87;;;2.70;;
7205;SDS011;3644;53.480;10.004;2023-02-01T05:18:59;9.80;;;1.57;;
7205;SDS011;3644;53.480;10.004;2023-02-01T05:21:25;7.73;;;1.80;;
7205;SDS011;3644;53.480;10.004;2023-02-01T05:23:50;2.80;;;1.90;;
7205;SDS011;3644;53.480;10.004;2023-02-01T05:26:34;2.10;;;1.37;;
7205;SDS011;3644;53.480;10.004;2023-02-01T05:29:01;1.23;;;1.20;;
7205;SDS011;3644;53.480;10.004;2023-02-01T05:31:26;2.30;;;1.27;;
7205;SDS011;3644;53.480;10.004;2023-02-01T05:33:52;1.47;;;1.37;;
7205;SDS011;3644;53.480;10.004;2023-02-01T05:36:17;1.70;;;1.30;;
7205;SDS011;3644;53.480;10.004;2023-02-01T05:38:43;2.20;;;1.40;;
7205;SDS011;3644;53.480;10.004;2023-02-01T05:41:08;1.30;;;1.20;;
7205;SDS011;3644;53.480;10.004;2023-02-01T05:43:34;4.50;;;1.40;;
7205;SDS011;3644;53.480;10.004;2023-02-01T05:46:00;1.53;;;1.43;;
7205;SDS011;3644;53.480;10.004;2023-02-01T05:48:25;2.87;;;1.20;;
7205;SDS011;3644;53.480;10.004;2023-02-01T05:50:51;5.60;;;1.33;;
7205;SDS011;3644;53.480;10.004;2023-02-01T05:53:16;1.33;;;1.23;;
7205;SDS011;3644;53.480;10.004;2023-02-01T05:55:42;1.37;;;1.10;;
7205;SDS011;3644;53.480;10.004;2023-02-01T05:58:08;4.00;;;1.73;;
7205;SDS011;3644;53.480;10.004;2023-02-01T06:00:34;1.40;;;1.30;;
7205;SDS011;3644;53.480;10.004;2023-02-01T06:02:59;2.63;;;1.70;;
7205;SDS011;3644;53.480;10.004;2023-02-01T06:05:26;3.57;;;1.40;;
7205;SDS011;3644;53.480;10.004;2023-02-01T06:07:52;3.50;;;1.90;;
7205;SDS011;3644;53.480;10.004;2023-02-01T06:10:17;2.00;;;1.43;;
7205;SDS011;3644;53.480;10.004;2023-02-01T06:12:43;4.53;;;1.50;;
7205;SDS011;3644;53.480;10.004;2023-02-01T06:15:10;5.20;;;1.77;;
7205;SDS011;3644;53.480;10.004;2023-02-01T06:17:36;2.20;;;1.30;;
7205;SDS011;3644;53.480;10.004;2023-02-01T06:20:03;4.90;;;1.90;;
7205;SDS011;3644;53.480;10.004;2023-02-01T06:22:31;6.00;;;2.40;;
7205;SDS011;3644;53.480;10.004;2023-02-01T06:24:57;6.70;;;2.40;;
7205;SDS011;3644;53.480;10.004;2023-02-01T06:27:23;5.93;;;1.97;;
7205;SDS011;3644;53.480;10.004;2023-02-01T06:29:49;7.80;;;2.37;;
7205;SDS011;3644;53.480;10.004;2023-02-01T06:32:15;8.23;;;2.23;;
7205;SDS011;3644;53.480;10.004;2023-02-01T06:34:42;5.50;;;2.30;;
7205;SDS011;3644;53.480;10.004;2023-02-01T06:37:07;4.90;;;1.73;;
7205;SDS011;3644;53.480;10.004;2023-02-01T06:39:33;4.80;;;1.73;;
7205;SDS011;3644;53.480;10.004;2023-02-01T06:41:59;6.70;;;2.20;;
7205;SDS011;3644;53.480;10.004;2023-02-01T06:44:24;9.83;;;2.00;;
7205;SDS011;3644;53.480;10.004;2023-02-01T06:46:50;16.80;;;2.63;;
7205;SDS011;3644;53.480;10.004;2023-02-01T06:49:15;8.27;;;3.27;;
7205;SDS011;3644;53.480;10.004;2023-02-01T06:51:41;16.90;;;2.90;;
7205;SDS011;3644;53.480;10.004;2023-02-01T06:54:06;9.80;;;3.30;;
7205;SDS011;3644;53.480;10.004;2023-02-01T06:56:32;20.10;;;3.20;;
7205;SDS011;3644;53.480;10.004;2023-02-01T06:58:57;13.07;;;3.30;;
7205;SDS011;3644;53.480;10.004;2023-02-01T07:01:23;7.83;;;2.93;;
7205;SDS011;3644;53.480;10.004;2023-02-01T07:03:48;14.37;;;3.43;;
7205;SDS011;3644;53.480;10.004;2023-02-01T07:06:16;14.30;;;4.20;;
7205;SDS011;3644;53.480;10.004;2023-02-01T07:08:42;11.40;;;4.00;;
7205;SDS011;3644;53.480;10.004;2023-02-01T07:11:09;17.73;;;4.17;;
7205;SDS011;3644;53.480;10.004;2023-02-01T07:13:35;16.87;;;3.57;;
7205;SDS011;3644;53.480;10.004;2023-02-01T07:16:02;12.83;;;3.70;;
7205;SDS011;3644;53.480;10.004;2023-02-01T07:18:30;12.13;;;3.60;;
7205;SDS011;3644;53.480;10.004;2023-02-01T07:20:56;16.07;;;3.33;;
7205;SDS011;3644;53.480;10.004;2023-02-01T07:23:22;10.57;;;3.37;;
7205;SDS011;3644;53.480;10.004;2023-02-01T07:25:48;16.90;;;4.00;;
7205;SDS011;3644;53.480;10.004;2023-02-01T07:28:13;15.63;;;4.07;;
7205;SDS011;3644;53.480;10.004;2023-02-01T07:30:39;9.57;;;4.20;;
7205;SDS011;3644;53.480;10.004;2023-02-01T07:33:06;27.10;;;4.70;;
7205;SDS011;3644;53.480;10.004;2023-02-01T07:35:32;26.70;;;3.83;;
7205;SDS011;3644;53.480;10.004;2023-02-01T07:37:57;17.33;;;3.97;;
7205;SDS011;3644;53.480;10.004;2023-02-01T07:40:23;20.53;;;3.83;;
7205;SDS011;3644;53.480;10.004;2023-02-01T07:42:56;20.27;;;4.27;;
7205;SDS011;3644;53.480;10.004;2023-02-01T07:45:22;13.23;;;3.53;;
7205;SDS011;3644;53.480;10.004;2023-02-01T07:47:48;23.23;;;6.37;;
7205;SDS011;3644;53.480;10.004;2023-02-01T07:50:14;20.87;;;4.53;;
7205;SDS011;3644;53.480;10.004;2023-02-01T07:52:40;28.00;;;4.10;;
7205;SDS011;3644;53.480;10.004;2023-02-01T07:55:06;32.87;;;3.97;;
7205;SDS011;3644;53.480;10.004;2023-02-01T07:57:32;27.43;;;5.60;;
7205;SDS011;3644;53.480;10.004;2023-02-01T07:59:57;28.20;;;4.97;;
7205;SDS011;3644;53.480;10.004;2023-02-01T08:02:41;23.20;;;6.47;;
7205;SDS011;3644;53.480;10.004;2023-02-01T08:05:07;26.30;;;5.73;;
7205;SDS011;3644;53.480;10.004;2023-02-01T08:07:33;30.03;;;4.20;;
7205;SDS011;3644;53.480;10.004;2023-02-01T08:09:58;24.57;;;4.60;;
7205;SDS011;3644;53.480;10.004;2023-02-01T08:12:24;30.03;;;4.67;;
7205;SDS011;3644;53.480;10.004;2023-02-01T08:14:50;26.07;;;4.70;;
7205;SDS011;3644;53.480;10.004;2023-02-01T08:17:16;22.90;;;5.93;;
7205;SDS011;3644;53.480;10.004;2023-02-01T08:19:41;20.90;;;4.40;;
7205;SDS011;3644;53.480;10.004;2023-02-01T08:22:06;12.33;;;4.10;;
7205;SDS011;3644;53.480;10.004;2023-02-01T08:24:33;22.27;;;5.63;;
7205;SDS011;3644;53.480;10.004;2023-02-01T08:27:00;25.90;;;5.00;;
7205;SDS011;3644;53.480;10.004;2023-02-01T08:29:26;17.70;;;4.30;;
7205;SDS011;3644;53.480;10.004;2023-02-01T08:31:52;25.53;;;4.43;;
7205;SDS011;3644;53.480;10.004;2023-02-01T08:34:19;17.63;;;3.70;;
7205;SDS011;3644;53.480;10.004;2023-02-01T08:36:44;31.23;;;5.00;;
7205;SDS011;3644;53.480;10.004;2023-02-01T08:39:10;30.17;;;5.00;;
7205;SDS011;3644;53.480;10.004;2023-02-01T08:41:36;23.20;;;5.90;;
7205;SDS011;3644;53.480;10.004;2023-02-01T08:44:02;26.53;;;5.17;;
7205;SDS011;3644;53.480;10.004;2023-02-01T08:46:28;21.00;;;4.30;;
7205;SDS011;3644;53.480;10.004;2023-02-01T08:48:53;18.90;;;4.20;;
7205;SDS011;3644;53.480;10.004;2023-02-01T08:51:20;19.03;;;4.90;;
7205;SDS011;3644;53.480;10.004;2023-02-01T08:53:46;37.60;;;4.97;;
7205;SDS011;3644;53.480;10.004;2023-02-01T08:56:14;23.47;;;3.80;;
7205;SDS011;3644;53.480;10.004;2023-02-01T08:58:40;35.87;;;4.73;;
7205;SDS011;3644;53.480;10.004;2023-02-01T09:01:07;20.90;;;4.07;;
7205;SDS011;3644;53.480;10.004;2023-02-01T09:03:37;27.73;;;6.00;;
7205;SDS011;3644;53.480;10.004;2023-02-01T09:06:03;15.80;;;4.20;;
7205;SDS011;3644;53.480;10.004;2023-02-01T09:08:31;25.23;;;5.37;;
7205;SDS011;3644;53.480;10.004;2023-02-01T09:11:00;20.23;;;4.60;;
7205;SDS011;3644;53.480;10.004;2023-02-01T09:13:35;15.47;;;4.80;;
7205;SDS011;3644;53.480;10.004;2023-02-01T09:16:01;28.13;;;4.73;;
7205;SDS011;3644;53.480;10.004;2023-02-01T09:18:26;23.03;;;3.90;;
7205;SDS011;3644;53.480;10.004;2023-02-01T09:20:52;20.97;;;5.37;;
7205;SDS011;3644;53.480;10.004;2023-02-01T09:23:17;21.77;;;4.07;;
7205;SDS011;3644;53.480;10.004;2023-02-01T09:25:45;24.33;;;5.00;;
7205;SDS011;3644;53.480;10.004;2023-02-01T09:28:11;33.57;;;4.40;;
7205;SDS011;3644;53.480;10.004;2023-02-01T09:30:36;21.90;;;4.67;;
7205;SDS011;3644;53.480;10.004;2023-02-01T09:33:02;31.43;;;5.60;;
7205;SDS011;3644;53.480;10.004;2023-02-01T09:35:28;29.33;;;3.90;;
7205;SDS011;3644;53.480;10.004;2023-02-01T09:37:54;16.10;;;4.53;;
7205;SDS011;3644;53.480;10.004;2023-02-01T09:40:20;27.17;;;4.53;;
7205;SDS011;3644;53.480;10.004;2023-02-01T09:48:11;22.47;;;4.37;;
7205;SDS011;3644;53.480;10.004;2023-02-01T09:50:46;17.13;;;3.83;;
7205;SDS011;3644;53.480;10.004;2023-02-01T09:53:17;13.27;;;4.47;;
7205;SDS011;3644;53.480;10.004;2023-02-01T09:56:00;26.90;;;4.43;;
7205;SDS011;3644;53.480;10.004;2023-02-01T09:58:33;28.00;;;4.27;;
7205;SDS011;3644;53.480;10.004;2023-02-01T10:01:11;20.10;;;4.67;;
7205;SDS011;3644;53.480;10.004;2023-02-01T10:03:49;18.73;;;4.03;;
7205;SDS011;3644;53.480;10.004;2023-02-01T10:11:44;31.13;;;5.83;;
7205;SDS011;3644;53.480;10.004;2023-02-01T10:22:41;20.00;;;5.50;;
7205;SDS011;3644;53.480;10.004;2023-02-01T10:27:47;8.40;;;2.77;;
7205;SDS011;3644;53.480;10.004;2023-02-01T10:32:47;18.53;;;3.73;;
7205;SDS011;3644;53.480;10.004;2023-02-01T10:35:18;14.30;;;4.10;;
7205;SDS011;3644;53.480;10.004;2023-02-01T10:37:48;16.37;;;3.73;;
7205;SDS011;3644;53.480;10.004;2023-02-01T10:42:51;12.17;;;3.77;;
7205;SDS011;3644;53.480;10.004;2023-02-01T10:45:24;15.40;;;3.27;;
7205;SDS011;3644;53.480;10.004;2023-02-01T10:47:53;25.93;;;6.07;;
7205;SDS011;3644;53.480;10.004;2023-02-01T10:53:15;33.60;;;10.80;;
7205;SDS011;3644;53.480;10.004;2023-02-01T10:55:50;34.37;;;6.13;;
7205;SDS011;3644;53.480;10.004;2023-02-01T10:58:18;32.67;;;5.10;;
7205;SDS011;3644;53.480;10.004;2023-02-01T11:00:47;20.37;;;4.17;;
7205;SDS011;3644;53.480;10.004;2023-02-01T11:05:58;23.70;;;4.30;;
7205;SDS011;3644;53.480;10.004;2023-02-01T11:08:25;29.47;;;3.70;;
7205;SDS011;3644;53.480;10.004;2023-02-01T11:10:58;12.30;;;4.50;;
7205;SDS011;3644;53.480;10.004;2023-02-01T11:13:28;16.63;;;4.87;;
7205;SDS011;3644;53.480;10.004;2023-02-01T11:16:02;20.83;;;3.70;;
7205;SDS011;3644;53.480;10.004;2023-02-01T11:18:29;22.20;;;4.87;;
7205;SDS011;3644;53.480;10.004;2023-02-01T11:20:57;15.00;;;3.17;;
7205;SDS011;3644;53.480;10.004;2023-02-01T11:23:25;22.57;;;5.00;;
7205;SDS011;3644;53.480;10.004;2023-02-01T11:25:59;28.50;;;4.80;;
7205;SDS011;3644;53.480;10.004;2023-02-01T11:28:27;12.97;;;3.73;;
7205;SDS011;3644;53.480;10.004;2023-02-01T11:30:56;11.27;;;4.03;;
7205;SDS011;3644;53.480;10.004;2023-02-01T11:33:31;22.50;;;4.30;;
7205;SDS011;3644;53.480;10.004;2023-02-01T11:36:11;23.67;;;4.00;;
7205;SDS011;3644;53.480;10.004;2023-02-01T11:38:45;16.40;;;3.33;;
7205;SDS011;3644;53.480;10.004;2023-02-01T11:41:21;13.23;;;3.50;;
7205;SDS011;3644;53.480;10.004;2023-02-01T11:43:56;14.47;;;4.10;;
7205;SDS011;3644;53.480;10.004;2023-02-01T11:46:33;14.33;;;4.37;;
7205;SDS011;3644;53.480;10.004;2023-02-01T11:54:36;19.90;;;5.13;;
7205;SDS011;3644;53.480;10.004;2023-02-01T12:05:48;10.20;;;3.23;;
7205;SDS011;3644;53.480;10.004;2023-02-01T12:19:49;18.03;;;3.37;;
7205;SDS011;3644;53.480;10.004;2023-02-01T12:41:47;7.93;;;2.13;;
7205;SDS011;3644;53.480;10.004;2023-02-01T12:44:39;6.80;;;1.50;;
7205;SDS011;3644;53.480;10.004;2023-02-01T12:52:18;1.63;;;1.20;;
7205;SDS011;3644;53.480;10.004;2023-02-01T12:54:50;3.17;;;1.47;;
7205;SDS011;3644;53.480;10.004;2023-02-01T12:57:32;2.77;;;1.50;;
7205;SDS011;3644;53.480;10.004;2023-02-01T13:02:42;2.60;;;1.50;;
7205;SDS011;3644;53.480;10.004;2023-02-01T13:05:27;1.27;;;1.23;;
7205;SDS011;3644;53.480;10.004;2023-02-01T13:08:05;1.30;;;1.20;;
7205;SDS011;3644;53.480;10.004;2023-02-01T13:10:36;4.00;;;1.50;;
7205;SDS011;3644;53.480;10.004;2023-02-01T13:15:51;1.60;;;1.50;;
7205;SDS011;3644;53.480;10.004;2023-02-01T13:18:24;1.70;;;1.60;;
7205;SDS011;3644;53.480;10.004;2023-02-01T13:21:43;3.90;;;1.37;;
7205;SDS011;3644;53.480;10.004;2023-02-01T13:23:46;1.43;;;1.13;;
7205;SDS011;3644;53.480;10.004;2023-02-01T13:26:13;3.27;;;1.40;;
7205;SDS011;3644;53.480;10.004;2023-02-01T13:28:44;1.40;;;1.30;;
7205;SDS011;3644;53.480;10.004;2023-02-01T13:36:47;3.03;;;1.20;;
7205;SDS011;3644;53.480;10.004;2023-02-01T13:39:36;3.17;;;1.33;;
7205;SDS011;3644;53.480;10.004;2023-02-01T13:42:17;1.00;;;1.00;;
7205;SDS011;3644;53.480;10.004;2023-02-01T13:44:55;1.60;;;1.50;;
7205;SDS011;3644;53.480;10.004;2023-02-01T13:47:32;4.80;;;2.97;;
7205;SDS011;3644;53.480;10.004;2023-02-01T13:50:01;11.97;;;4.10;;
7205;SDS011;3644;53.480;10.004;2023-02-01T13:53:31;39.90;;;13.67;;
7205;SDS011;3644;53.480;10.004;2023-02-01T13:55:46;16.30;;;5.53;;
7205;SDS011;3644;53.480;10.004;2023-02-01T13:58:29;48.33;;;11.43;;
7205;SDS011;3644;53.480;10.004;2023-02-01T14:09:10;2.60;;;1.87;;
7205;SDS011;3644;53.480;10.004;2023-02-01T14:11:43;1.87;;;1.77;;
7205;SDS011;3644;53.480;10.004;2023-02-01T14:16:39;9.90;;;1.70;;
7205;SDS011;3644;53.480;10.004;2023-02-01T14:19:25;6.07;;;2.30;;
7205;SDS011;3644;53.480;10.004;2023-02-01T14:21:52;2.23;;;1.80;;
7205;SDS011;3644;53.480;10.004;2023-02-01T14:24:24;1.73;;;1.60;;
7205;SDS011;3644;53.480;10.004;2023-02-01T14:26:56;2.70;;;1.80;;
7205;SDS011;3644;53.480;10.004;2023-02-01T14:29:53;2.87;;;1.60;;
7205;SDS011;3644;53.480;10.004;2023-02-01T14:32:25;7.10;;;2.27;;
7205;SDS011;3644;53.480;10.004;2023-02-01T14:34:58;7.97;;;2.00;;
7205;SDS011;3644;53.480;10.004;2023-02-01T14:37:28;4.97;;;1.80;;
7205;SDS011;3644;53.480;10.004;2023-02-01T14:40:00;9.07;;;2.37;;
7205;SDS011;3644;53.480;10.004;2023-02-01T14:47:53;11.50;;;2.60;;
7205;SDS011;3644;53.480;10.004;2023-02-01T14:58:25;3.50;;;1.77;;
7205;SDS011;3644;53.480;10.004;2023-02-01T15:01:02;10.93;;;3.00;;
7205;SDS011;3644;53.480;10.004;2023-02-01T15:06:31;28.80;;;2.77;;
7205;SDS011;3644;53.480;10.004;2023-02-01T15:09:07;11.30;;;2.93;;
7205;SDS011;3644;53.480;10.004;2023-02-01T15:12:04;15.07;;;6.03;;
7205;SDS011;3644;53.480;10.004;2023-02-01T15:14:37;21.43;;;6.57;;
7205;SDS011;3644;53.480;10.004;2023-02-01T15:17:25;20.93;;;5.30;;
7205;SDS011;3644;53.480;10.004;2023-02-01T15:19:59;21.90;;;5.07;;
7205;SDS011;3644;53.480;10.004;2023-02-01T15:22:27;32.97;;;10.90;;
7205;SDS011;3644;53.480;10.004;2023-02-01T15:24:54;27.73;;;8.00;;
7205;SDS011;3644;53.480;10.004;2023-02-01T15:27:22;17.00;;;4.70;;
7205;SDS011;3644;53.480;10.004;2023-02-01T15:29:47;41.00;;;11.77;;
7205;SDS011;3644;53.480;10.004;2023-02-01T15:34:58;26.80;;;8.60;;
7205;SDS011;3644;53.480;10.004;2023-02-01T15:37:25;22.50;;;7.23;;
7205;SDS011;3644;53.480;10.004;2023-02-01T15:42:46;17.93;;;4.60;;
7205;SDS011;3644;53.480;10.004;2023-02-01T15:45:19;9.90;;;3.83;;
7205;SDS011;3644;53.480;10.004;2023-02-01T15:47:49;13.00;;;4.90;;
7205;SDS011;3644;53.480;10.004;2023-02-01T15:50:17;17.03;;;4.80;;
7205;SDS011;3644;53.480;10.004;2023-02-01T15:52:45;23.27;;;5.53;;
7205;SDS011;3644;53.480;10.004;2023-02-01T15:55:23;15.20;;;4.03;;
7205;SDS011;3644;53.480;10.004;2023-02-01T15:57:58;19.30;;;4.83;;
7205;SDS011;3644;53.480;10.004;2023-02-01T16:00:25;9.90;;;3.27;;
7205;SDS011;3644;53.480;10.004;2023-02-01T16:02:54;24.10;;;4.40;;
7205;SDS011;3644;53.480;10.004;2023-02-01T16:08:00;16.77;;;3.43;;
7205;SDS011;3644;53.480;10.004;2023-02-01T16:10:30;12.30;;;3.50;;
7205;SDS011;3644;53.480;10.004;2023-02-01T16:12:56;20.43;;;3.97;;
7205;SDS011;3644;53.480;10.004;2023-02-01T16:15:25;15.47;;;4.07;;
7205;SDS011;3644;53.480;10.004;2023-02-01T16:17:51;7.93;;;2.70;;
7205;SDS011;3644;53.480;10.004;2023-02-01T16:20:17;11.33;;;3.97;;
7205;SDS011;3644;53.480;10.004;2023-02-01T16:22:42;28.50;;;3.93;;
7205;SDS011;3644;53.480;10.004;2023-02-01T16:25:08;15.40;;;4.03;;
7205;SDS011;3644;53.480;10.004;2023-02-01T16:27:34;17.20;;;5.10;;
7205;SDS011;3644;53.480;10.004;2023-02-01T16:29:59;30.23;;;5.50;;
7205;SDS011;3644;53.480;10.004;2023-02-01T16:32:25;19.00;;;5.30;;
7205;SDS011;3644;53.480;10.004;2023-02-01T16:34:51;34.93;;;5.77;;
7205;SDS011;3644;53.480;10.004;2023-02-01T16:37:19;20.63;;;6.43;;
7205;SDS011;3644;53.480;10.004;2023-02-01T16:39:47;19.30;;;6.83;;
7205;SDS011;3644;53.480;10.004;2023-02-01T16:42:13;35.90;;;7.30;;
7205;SDS011;3644;53.480;10.004;2023-02-01T16:44:40;28.65;;;6.82;;
7205;SDS011;3644;53.480;10.004;2023-02-01T16:47:11;30.97;;;7.67;;
7205;SDS011;3644;53.480;10.004;2023-02-01T16:49:45;17.20;;;5.90;;
7205;SDS011;3644;53.480;10.004;2023-02-01T16:52:15;44.80;;;9.90;;
7205;SDS011;3644;53.480;10.004;2023-02-01T16:54:46;45.77;;;11.23;;
7205;SDS011;3644;53.480;10.004;2023-02-01T16:57:13;35.40;;;11.13;;
7205;SDS011;3644;53.480;10.004;2023-02-01T16:59:40;26.47;;;4.53;;
7205;SDS011;3644;53.480;10.004;2023-02-01T17:02:09;32.40;;;6.10;;
7205;SDS011;3644;53.480;10.004;2023-02-01T17:04:36;47.30;;;7.00;;
7205;SDS011;3644;53.480;10.004;2023-02-01T17:07:02;23.03;;;5.50;;
7205;SDS011;3644;53.480;10.004;2023-02-01T17:09:33;24.30;;;5.30;;
7205;SDS011;3644;53.480;10.004;2023-02-01T17:12:00;24.57;;;5.13;;
7205;SDS011;3644;53.480;10.004;2023-02-01T17:14:26;21.10;;;4.60;;
7205;SDS011;3644;53.480;10.004;2023-02-01T17:16:52;27.33;;;4.40;;
7205;SDS011;3644;53.480;10.004;2023-02-01T17:19:19;32.83;;;6.70;;
7205;SDS011;3644;53.480;10.004;2023-02-01T17:21:48;28.40;;;3.77;;
7205;SDS011;3644;53.480;10.004;2023-02-01T17:24:18;40.90;;;5.87;;
7205;SDS011;3644;53.480;10.004;2023-02-01T17:26:45;51.77;;;6.20;;
7205;SDS011;3644;53.480;10.004;2023-02-01T17:29:11;29.83;;;4.90;;
7205;SDS011;3644;53.480;10.004;2023-02-01T17:31:38;38.43;;;5.13;;
7205;SDS011;3644;53.480;10.004;2023-02-01T17:34:07;19.47;;;3.70;;